createdAt,value
2023-03-08T00:00:31.348Z,9.20
2023-03-08T00:03:19.146Z,9.50
2023-03-08T00:06:10.712Z,9.20
2023-03-08T00:09:02.700Z,9.00
2023-03-08T00:11:50.457Z,9.40
2023-03-08T00:14:39.680Z,9.27
2023-03-08T00:17:27.661Z,9.30
2023-03-08T00:20:17.380Z,9.30
2023-03-08T00:23:06.740Z,9.50
2023-03-08T00:25:56.562Z,9.20
2023-03-08T00:28:47.637Z,9.43
2023-03-08T00:31:36.829Z,10.07
2023-03-08T00:34:24.845Z,9.40
2023-03-08T00:37:12.463Z,9.50
2023-03-08T00:40:01.845Z,9.37
2023-03-08T00:42:51.197Z,9.23
2023-03-08T00:45:40.551Z,9.40
2023-03-08T00:48:31.323Z,9.30
2023-03-08T00:51:22.263Z,9.50
2023-03-08T00:54:11.613Z,9.30
2023-03-08T00:57:00.994Z,9.40
2023-03-08T00:59:50.358Z,9.00
2023-03-08T01:02:41.154Z,9.20
2023-03-08T01:05:32.011Z,9.50
2023-03-08T01:08:23.291Z,9.57
2023-03-08T01:11:18.810Z,9.43
2023-03-08T01:14:09.313Z,9.47
2023-03-08T01:16:57.113Z,9.40
2023-03-08T01:19:46.609Z,9.40
2023-03-08T01:22:35.841Z,9.20
2023-03-08T01:25:25.265Z,9.40
2023-03-08T01:28:14.689Z,9.30
2023-03-08T01:31:05.582Z,9.37
2023-03-08T01:33:57.132Z,9.40
2023-03-08T01:36:46.670Z,9.40
2023-03-08T01:39:37.434Z,9.00
2023-03-08T01:42:27.709Z,9.13
2023-03-08T01:46:09.227Z,9.27
2023-03-08T01:49:05.517Z,9.40
2023-03-08T01:52:02.914Z,9.40
2023-03-08T01:54:57.395Z,9.37
2023-03-08T01:57:49.973Z,9.27
2023-03-08T02:00:40.837Z,9.67
2023-03-08T02:03:30.210Z,9.30
2023-03-08T02:06:22.268Z,9.67
2023-03-08T02:09:11.702Z,9.47
2023-03-08T02:12:07.718Z,9.40
2023-03-08T02:14:58.965Z,9.30
2023-03-08T02:17:48.421Z,9.60
2023-03-08T02:20:40.136Z,9.47
2023-03-08T02:23:31.457Z,9.70
2023-03-08T02:26:19.593Z,9.37
2023-03-08T02:29:06.933Z,9.50
2023-03-08T02:31:56.347Z,9.40
2023-03-08T02:34:45.828Z,9.47
2023-03-08T02:37:34.216Z,10.07
2023-03-08T02:40:25.313Z,9.70
2023-03-08T02:43:13.131Z,9.93
2023-03-08T02:46:00.829Z,9.67
2023-03-08T02:48:49.234Z,9.40
2023-03-08T02:51:38.607Z,9.60
2023-03-08T02:54:27.853Z,9.70
2023-03-08T02:57:18.676Z,10.23
2023-03-08T03:00:11.163Z,9.63
2023-03-08T03:03:00.565Z,10.00
2023-03-08T03:05:50.502Z,9.93
2023-03-08T03:08:45.878Z,9.90
2023-03-08T03:11:35.225Z,9.87
2023-03-08T03:14:29.234Z,10.53
2023-03-08T03:17:19.398Z,10.50
2023-03-08T03:20:09.506Z,9.97
2023-03-08T03:22:57.147Z,10.30
2023-03-08T03:25:49.892Z,10.23
2023-03-08T03:28:41.770Z,10.40
2023-03-08T03:31:31.285Z,10.67
2023-03-08T03:34:20.788Z,10.13
2023-03-08T03:37:11.798Z,10.30
2023-03-08T03:40:03.217Z,10.70
2023-03-08T03:42:52.926Z,10.13
2023-03-08T03:45:42.416Z,10.50
2023-03-08T03:48:35.122Z,10.10
2023-03-08T03:51:25.259Z,10.53
2023-03-08T03:54:25.975Z,10.00
2023-03-08T03:57:21.522Z,10.47
2023-03-08T04:00:13.206Z,10.00
2023-03-08T04:03:11.088Z,10.43
2023-03-08T04:06:09.600Z,10.30
2023-03-08T04:09:00.515Z,10.70
2023-03-08T04:11:52.566Z,10.67
2023-03-08T04:14:44.513Z,10.50
2023-03-08T04:17:35.599Z,10.00
2023-03-08T04:20:25.596Z,10.10
2023-03-08T04:23:19.973Z,10.00
2023-03-08T04:26:10.787Z,9.90
2023-03-08T04:29:00.277Z,10.00
2023-03-08T04:31:49.770Z,10.30
2023-03-08T04:34:40.616Z,10.10
2023-03-08T04:37:28.848Z,10.13
2023-03-08T04:40:25.592Z,9.83
2023-03-08T04:43:19.218Z,10.27
2023-03-08T04:46:07.200Z,10.40
2023-03-08T04:48:56.217Z,10.40
2023-03-08T04:51:46.778Z,10.20
2023-03-08T04:54:36.230Z,10.90
2023-03-08T04:57:32.405Z,9.73
2023-03-08T05:00:24.216Z,10.40
2023-03-08T05:03:14.482Z,10.40
2023-03-08T05:06:04.018Z,10.53
2023-03-08T05:08:54.249Z,10.83
2023-03-08T05:11:45.115Z,10.80
2023-03-08T05:14:36.246Z,10.70
2023-03-08T05:17:26.305Z,10.60
2023-03-08T05:20:14.815Z,11.00
2023-03-08T05:23:04.851Z,12.10
2023-03-08T05:26:00.585Z,10.70
2023-03-08T05:28:50.123Z,10.70
2023-03-08T05:31:45.435Z,10.83
2023-03-08T05:34:36.518Z,10.30
2023-03-08T05:37:27.624Z,10.60
2023-03-08T05:40:20.153Z,10.93
2023-03-08T05:43:10.095Z,10.77
2023-03-08T05:45:59.778Z,10.37
2023-03-08T05:48:51.058Z,10.37
2023-03-08T05:51:39.607Z,10.30
2023-03-08T05:54:27.480Z,10.23
2023-03-08T05:57:21.466Z,10.70
2023-03-08T06:00:14.605Z,10.57
2023-03-08T06:03:09.412Z,10.40
2023-03-08T06:06:01.911Z,10.00
2023-03-08T06:08:51.638Z,9.90
2023-03-08T06:11:39.386Z,9.90
2023-03-08T06:14:29.474Z,10.50
2023-03-08T06:17:17.987Z,10.07
2023-03-08T06:20:10.528Z,10.10
2023-03-08T06:23:05.400Z,9.83
2023-03-08T06:25:55.547Z,10.10
2023-03-08T06:28:45.539Z,9.87
2023-03-08T06:31:34.252Z,10.23
2023-03-08T06:34:24.529Z,9.70
2023-03-08T06:37:15.002Z,9.97
2023-03-08T06:40:09.221Z,10.00
2023-03-08T06:42:58.822Z,10.03
2023-03-08T06:45:47.097Z,10.20
2023-03-08T06:48:35.671Z,10.10
2023-03-08T06:51:25.176Z,10.27
2023-03-08T06:54:17.691Z,9.90
2023-03-08T06:57:08.286Z,10.27
2023-03-08T06:59:57.693Z,10.70
2023-03-08T07:02:46.161Z,10.43
2023-03-08T07:05:33.923Z,10.33
2023-03-08T07:08:23.286Z,10.37
2023-03-08T07:11:11.689Z,10.43
2023-03-08T07:14:00.610Z,9.97
2023-03-08T07:16:49.941Z,10.60
2023-03-08T07:19:37.830Z,9.90
2023-03-08T07:22:25.665Z,10.70
2023-03-08T07:25:14.152Z,10.03
2023-03-08T07:28:03.591Z,10.20
2023-03-08T07:30:54.181Z,10.10
2023-03-08T07:33:42.231Z,9.90
2023-03-08T07:36:29.888Z,10.30
2023-03-08T07:39:19.178Z,10.00
2023-03-08T07:42:08.863Z,10.60
2023-03-08T07:44:59.325Z,10.40
2023-03-08T07:47:51.552Z,10.50
2023-03-08T07:50:39.466Z,10.93
2023-03-08T07:53:27.264Z,10.37
2023-03-08T07:56:15.077Z,10.20
2023-03-08T07:59:02.555Z,10.43
2023-03-08T08:01:51.966Z,10.23
2023-03-08T08:04:41.218Z,10.17
2023-03-08T08:07:28.935Z,10.00
2023-03-08T08:10:16.996Z,10.23
2023-03-08T08:13:06.269Z,10.33
2023-03-08T08:16:00.373Z,10.10
2023-03-08T08:18:48.003Z,10.77
2023-03-08T08:21:36.945Z,10.97
2023-03-08T08:24:26.357Z,10.70
2023-03-08T08:27:15.417Z,10.70
2023-03-08T08:30:07.240Z,10.80
2023-03-08T08:32:56.580Z,10.87
2023-03-08T08:35:46.248Z,10.97
2023-03-08T08:38:37.470Z,10.60
2023-03-08T08:41:28.064Z,10.60
2023-03-08T08:44:15.717Z,10.93
2023-03-08T08:47:06.032Z,10.80
2023-03-08T08:49:53.695Z,10.70
2023-03-08T08:52:43.097Z,10.77
2023-03-08T08:55:32.172Z,11.17
2023-03-08T08:58:20.162Z,10.60
2023-03-08T09:01:15.798Z,10.57
2023-03-08T09:04:05.208Z,10.40
2023-03-08T09:06:54.621Z,10.17
2023-03-08T09:09:42.609Z,10.50
2023-03-08T09:12:32.132Z,10.70
2023-03-08T09:15:23.106Z,10.17
2023-03-08T09:18:10.848Z,9.97
2023-03-08T09:21:02.471Z,10.67
2023-03-08T09:23:50.345Z,10.43
2023-03-08T09:26:37.971Z,10.07
2023-03-08T09:29:28.705Z,10.30
2023-03-08T09:32:18.211Z,10.40
2023-03-08T09:35:07.378Z,10.43
2023-03-08T09:37:56.239Z,10.03
2023-03-08T09:40:56.687Z,10.20
2023-03-08T09:44:01.738Z,10.23
2023-03-08T09:46:57.577Z,10.80
2023-03-08T09:49:52.099Z,10.33
2023-03-08T09:52:44.264Z,10.90
2023-03-08T09:55:34.997Z,10.60
2023-03-08T09:58:38.109Z,10.70
2023-03-08T10:01:38.093Z,11.00
2023-03-08T10:05:05.910Z,10.77
2023-03-08T10:08:08.510Z,10.57
2023-03-08T10:11:01.488Z,10.67
2023-03-08T10:13:54.224Z,11.10
2023-03-08T10:16:47.877Z,11.07
2023-03-08T10:19:44.285Z,11.07
2023-03-08T10:22:39.107Z,10.97
2023-03-08T10:25:31.350Z,11.43
2023-03-08T10:28:23.898Z,10.90
2023-03-08T10:31:26.301Z,11.30
2023-03-08T10:34:18.836Z,11.30
2023-03-08T10:37:09.938Z,12.10
2023-03-08T10:39:59.877Z,12.10
2023-03-08T10:42:53.590Z,12.50
2023-03-08T10:45:42.887Z,12.70
2023-03-08T10:48:30.643Z,13.00
2023-03-08T10:51:21.730Z,12.90
2023-03-08T10:54:17.160Z,12.70
2023-03-08T10:57:06.858Z,13.57
2023-03-08T11:00:00.419Z,12.87
2023-03-08T11:02:49.421Z,13.00
2023-03-08T11:05:37.744Z,13.23
2023-03-08T11:08:31.057Z,13.10
2023-03-08T11:11:21.887Z,12.43
2023-03-08T11:14:12.822Z,13.50
2023-03-08T11:17:15.507Z,12.60
2023-03-08T11:20:16.443Z,12.70
2023-03-08T11:23:21.197Z,13.17
2023-03-08T11:26:21.711Z,12.67
2023-03-08T11:29:26.782Z,12.30
2023-03-08T11:32:40.468Z,12.60
2023-03-08T11:35:37.406Z,12.10
2023-03-08T11:38:29.282Z,12.60
2023-03-08T11:41:29.557Z,12.43
2023-03-08T11:44:35.452Z,13.43
2023-03-08T11:47:56.064Z,13.43
2023-03-08T11:50:54.236Z,12.57
2023-03-08T11:54:00.497Z,13.10
2023-03-08T11:56:55.954Z,12.60
2023-03-08T11:59:47.792Z,13.23
2023-03-08T12:02:39.065Z,13.67
2023-03-08T12:05:31.515Z,14.60
2023-03-08T12:08:26.287Z,13.80
2023-03-08T12:11:22.371Z,14.13
2023-03-08T12:14:19.812Z,13.57
2023-03-08T12:17:16.967Z,13.33
2023-03-08T12:20:08.262Z,13.20
2023-03-08T12:23:04.796Z,13.00
2023-03-08T12:25:57.219Z,13.33
2023-03-08T12:28:49.495Z,13.13
2023-03-08T12:31:43.951Z,13.17
2023-03-08T12:34:40.650Z,14.17
2023-03-08T12:37:31.803Z,12.63
2023-03-08T12:40:37.696Z,12.93
2023-03-08T12:43:34.531Z,12.50
2023-03-08T12:46:24.081Z,12.93
2023-03-08T12:49:28.137Z,12.90
2023-03-08T12:52:31.692Z,13.90
2023-03-08T12:55:31.393Z,13.20
2023-03-08T12:58:20.799Z,13.50
2023-03-08T13:01:25.242Z,14.13
2023-03-08T13:04:41.750Z,13.00
2023-03-08T13:07:38.410Z,13.00
2023-03-08T13:10:33.132Z,12.60
2023-03-08T13:13:40.277Z,12.23
2023-03-08T13:16:35.769Z,12.87
2023-03-08T13:19:30.769Z,12.30
2023-03-08T13:22:26.807Z,12.30
2023-03-08T13:25:32.776Z,12.50
2023-03-08T13:28:23.496Z,12.10
2023-03-08T13:31:18.227Z,11.90
2023-03-08T13:34:30.123Z,12.27
2023-03-08T13:37:24.470Z,12.70
2023-03-08T13:40:22.010Z,12.40
2023-03-08T13:43:15.514Z,12.43
2023-03-08T13:46:15.516Z,12.23
2023-03-08T13:49:03.877Z,12.27
2023-03-08T13:51:57.896Z,12.33
2023-03-08T13:54:49.440Z,13.03
2023-03-08T13:57:42.151Z,12.93
2023-03-08T14:00:33.970Z,12.60
2023-03-08T14:03:23.884Z,12.40
2023-03-08T14:06:20.904Z,12.80
2023-03-08T14:09:12.165Z,13.10
2023-03-08T14:12:04.538Z,13.43
2023-03-08T14:14:56.078Z,14.27
2023-03-08T14:17:43.902Z,14.00
2023-03-08T14:20:33.596Z,14.43
2023-03-08T14:23:25.680Z,13.97
2023-03-08T14:26:31.809Z,13.47
2023-03-08T14:29:21.891Z,13.00
2023-03-08T14:32:32.805Z,13.23
2023-03-08T14:35:26.626Z,12.63
2023-03-08T14:38:23.959Z,12.13
2023-03-08T14:41:15.452Z,12.13
2023-03-08T14:44:06.993Z,11.87
2023-03-08T14:46:59.185Z,11.93
2023-03-08T14:49:58.008Z,11.90
2023-03-08T14:52:51.017Z,11.10
2023-03-08T14:55:43.060Z,12.00
2023-03-08T14:58:33.294Z,10.97
2023-03-08T15:01:27.867Z,11.93
2023-03-08T15:04:19.533Z,12.07
2023-03-08T15:07:12.198Z,11.73
2023-03-08T15:10:06.437Z,11.80
2023-03-08T15:12:54.425Z,11.60
2023-03-08T15:15:44.196Z,11.13
2023-03-08T15:18:34.967Z,11.17
2023-03-08T15:21:27.116Z,11.10
2023-03-08T15:24:18.773Z,11.53
2023-03-08T15:27:08.153Z,11.40
2023-03-08T15:29:57.496Z,11.47
2023-03-08T15:32:46.972Z,11.43
2023-03-08T15:35:38.285Z,11.47
2023-03-08T15:38:27.667Z,11.40
2023-03-08T15:41:18.575Z,11.00
2023-03-08T15:44:08.507Z,11.10
2023-03-08T15:46:58.995Z,12.10
2023-03-08T15:49:52.061Z,12.00
2023-03-08T15:52:42.980Z,11.93
2023-03-08T15:55:33.234Z,11.93
2023-03-08T15:58:20.898Z,11.67
2023-03-08T16:01:09.086Z,11.77
2023-03-08T16:03:58.805Z,11.50
2023-03-08T16:06:48.172Z,11.53
2023-03-08T16:09:38.888Z,11.10
2023-03-08T16:12:26.961Z,11.20
2023-03-08T16:15:16.427Z,11.10
2023-03-08T16:18:06.079Z,11.70
2023-03-08T16:20:56.100Z,11.17
2023-03-08T16:23:45.603Z,11.33
2023-03-08T16:26:36.253Z,10.83
2023-03-08T16:29:24.540Z,11.00
2023-03-08T16:32:16.085Z,11.60
2023-03-08T16:35:04.193Z,10.70
2023-03-08T16:37:55.044Z,11.60
2023-03-08T16:40:44.387Z,11.17
2023-03-08T16:43:45.782Z,11.07
2023-03-08T16:46:35.571Z,13.50
2023-03-08T16:49:28.243Z,16.60
2023-03-08T16:52:17.930Z,14.50
2023-03-08T16:55:09.352Z,13.13
2023-03-08T16:57:56.812Z,12.43
2023-03-08T17:00:45.945Z,12.23
2023-03-08T17:03:33.756Z,11.53
2023-03-08T17:06:27.151Z,11.80
2023-03-08T17:09:14.819Z,12.07
2023-03-08T17:12:04.420Z,11.00
2023-03-08T17:14:54.086Z,11.13
2023-03-08T17:17:43.409Z,12.40
2023-03-08T17:20:31.413Z,11.37
2023-03-08T17:23:21.398Z,10.70
2023-03-08T17:26:13.043Z,12.47
2023-03-08T17:29:02.839Z,11.00
2023-03-08T17:31:50.916Z,11.33
2023-03-08T17:34:40.056Z,11.07
2023-03-08T17:37:28.059Z,11.97
2023-03-08T17:40:17.682Z,11.53
2023-03-08T17:43:07.223Z,11.57
2023-03-08T17:45:59.881Z,11.43
2023-03-08T17:48:48.217Z,11.60
2023-03-08T17:51:38.979Z,12.40
2023-03-08T17:54:28.272Z,12.40
2023-03-08T17:57:18.655Z,11.97
2023-03-08T18:00:11.186Z,12.13
2023-03-08T18:03:00.400Z,11.57
2023-03-08T18:05:50.930Z,11.80
2023-03-08T18:08:41.622Z,13.40
2023-03-08T18:11:29.923Z,12.67
2023-03-08T18:14:17.540Z,13.27
2023-03-08T18:17:04.774Z,12.30
2023-03-08T18:19:52.714Z,12.10
2023-03-08T18:22:42.139Z,12.17
2023-03-08T18:25:31.386Z,11.93
2023-03-08T18:28:21.144Z,12.13
2023-03-08T18:31:10.466Z,12.80
2023-03-08T18:34:00.161Z,12.20
2023-03-08T18:36:48.008Z,11.97
2023-03-08T18:39:35.865Z,11.80
2023-03-08T18:42:27.098Z,11.73
2023-03-08T18:45:18.274Z,11.60
2023-03-08T18:48:06.222Z,11.50
2023-03-08T18:50:54.563Z,11.17
2023-03-08T18:53:43.992Z,11.20
2023-03-08T18:56:33.768Z,11.10
2023-03-08T18:59:23.626Z,10.80
2023-03-08T19:02:12.370Z,10.30
2023-03-08T19:05:02.327Z,11.37
2023-03-08T19:07:53.686Z,10.60
2023-03-08T19:10:41.666Z,10.63
2023-03-08T19:13:31.150Z,10.60
2023-03-08T19:16:24.952Z,10.60
2023-03-08T19:19:15.334Z,10.90
2023-03-08T19:22:05.378Z,10.90
2023-03-08T19:24:54.715Z,10.90
2023-03-08T19:27:42.437Z,10.60
2023-03-08T19:30:30.028Z,10.63
2023-03-08T19:33:30.584Z,10.60
2023-03-08T19:36:21.393Z,10.60
2023-03-08T19:39:12.197Z,10.30
2023-03-08T19:42:02.311Z,10.47
2023-03-08T19:44:52.699Z,10.43
2023-03-08T19:47:42.051Z,10.70
2023-03-08T19:50:31.005Z,10.90
2023-03-08T19:53:18.862Z,11.30
2023-03-08T19:56:07.381Z,10.83
2023-03-08T19:58:57.183Z,11.00
2023-03-08T20:01:47.731Z,10.23
2023-03-08T20:04:36.557Z,10.30
2023-03-08T20:07:27.293Z,10.40
2023-03-08T20:10:18.143Z,10.43
2023-03-08T20:13:07.649Z,10.23
2023-03-08T20:15:55.393Z,10.50
2023-03-08T20:18:43.109Z,10.20
2023-03-08T20:21:32.697Z,10.23
2023-03-08T20:24:24.260Z,9.70
2023-03-08T20:27:11.927Z,9.90
2023-03-08T20:29:59.516Z,10.00
2023-03-08T20:32:47.067Z,10.00
2023-03-08T20:35:36.470Z,10.17
2023-03-08T20:38:24.226Z,10.20
2023-03-08T20:41:18.528Z,9.70
2023-03-08T20:44:06.315Z,9.73
2023-03-08T20:46:54.317Z,10.10
2023-03-08T20:49:42.014Z,9.77
2023-03-08T20:52:31.751Z,10.30
2023-03-08T20:55:21.117Z,10.40
2023-03-08T20:58:11.806Z,10.30
2023-03-08T21:00:59.781Z,10.37
2023-03-08T21:03:49.815Z,10.70
2023-03-08T21:06:39.288Z,10.50
2023-03-08T21:09:28.602Z,10.80
2023-03-08T21:12:17.955Z,10.97
2023-03-08T21:15:10.397Z,10.43
2023-03-08T21:17:59.862Z,10.03
2023-03-08T21:20:49.196Z,10.80
2023-03-08T21:23:36.958Z,10.40
2023-03-08T21:26:26.139Z,10.33
2023-03-08T21:29:16.380Z,10.30
2023-03-08T21:32:07.814Z,10.20
2023-03-08T21:34:57.158Z,10.40
2023-03-08T21:37:44.620Z,10.53
2023-03-08T21:40:32.364Z,10.77
2023-03-08T21:43:21.740Z,10.90
2023-03-08T21:46:11.735Z,10.67
2023-03-08T21:49:02.462Z,10.50
2023-03-08T21:51:50.784Z,10.50
2023-03-08T21:54:38.268Z,10.63
2023-03-08T21:57:27.584Z,10.40
2023-03-08T22:00:18.317Z,10.53
2023-03-08T22:03:06.334Z,10.40
2023-03-08T22:05:55.453Z,10.20
2023-03-08T22:08:44.877Z,10.23
2023-03-08T22:11:34.486Z,10.20
2023-03-08T22:14:22.293Z,10.47
2023-03-08T22:17:11.510Z,9.60
2023-03-08T22:19:59.140Z,10.50
2023-03-08T22:22:50.013Z,10.50
2023-03-08T22:25:39.449Z,10.40
2023-03-08T22:28:28.845Z,10.20
2023-03-08T22:31:20.660Z,10.57
2023-03-08T22:34:10.088Z,10.20
2023-03-08T22:37:00.859Z,10.10
2023-03-08T22:39:51.608Z,10.20
2023-03-08T22:42:41.886Z,10.20
2023-03-08T22:45:29.734Z,10.53
2023-03-08T22:48:19.169Z,10.23
2023-03-08T22:51:11.457Z,10.50
2023-03-08T22:54:03.982Z,10.37
2023-03-08T22:56:52.955Z,10.40
2023-03-08T22:59:43.450Z,10.73
2023-03-08T23:02:33.947Z,10.27
2023-03-08T23:05:21.882Z,10.87
2023-03-08T23:08:09.858Z,10.70
2023-03-08T23:10:59.323Z,10.80
2023-03-08T23:13:50.147Z,10.43
2023-03-08T23:16:42.549Z,10.53
2023-03-08T23:19:34.328Z,10.27
2023-03-08T23:22:23.646Z,10.20
2023-03-08T23:25:13.211Z,10.77
2023-03-08T23:28:02.522Z,10.33
2023-03-08T23:30:53.222Z,10.40
2023-03-08T23:33:41.432Z,10.53
2023-03-08T23:36:31.663Z,10.50
2023-03-08T23:39:20.989Z,10.30
2023-03-08T23:42:10.421Z,10.50
2023-03-08T23:44:59.762Z,10.40
2023-03-08T23:47:50.448Z,10.33
2023-03-08T23:50:40.734Z,10.30
2023-03-08T23:53:30.053Z,10.80
2023-03-08T23:56:26.491Z,10.83
2023-03-08T23:59:19.080Z,10.80
